Time;durP1;ratioP1;P1;durP2;ratioP2;P2;SDS_P1;SDS_P2;PMS_P1;PMS_P2;Temp;Humidity;BMP_temperature;BMP_pressure;BME280_temperature;BME280_humidity;BME280_pressure;Samples;Min_cycle;Max_cycle;Signal;HPM_P1;HPM_P2
2023/01/17 00:02:15;;;;;;;4.28;1.20;;;3.30;99.90;;;;;;5052325;28;20064;-72
2023/01/17 00:10:19;;;;;;;8.15;0.70;;;4.10;99.90;;;;;;5059435;28;20054;-72
2023/01/17 00:12:46;;;;;;;6.63;0.60;;;3.30;99.90;;;;;;5061426;28;20052;-72
2023/01/17 00:15:13;;;;;;;8.90;1.45;;;3.30;99.90;;;;;;5045305;28;20078;-72
2023/01/17 00:17:38;;;;;;;8.15;1.38;;;3.30;99.90;;;;;;5078400;28;20048;-73
2023/01/17 01:35:29;;;;;;;6.43;0.82;;;2.80;99.90;;;;;;5075394;28;20044;-73
2023/01/17 01:37:56;;;;;;;5.72;0.88;;;2.90;99.90;;;;;;5055657;28;20040;-73
2023/01/17 01:40:21;;;;;;;4.65;0.75;;;2.80;99.90;;;;;;5035702;28;20051;-74
2023/01/17 01:42:52;;;;;;;9.40;1.08;;;2.90;99.90;;;;;;5055184;28;20416;-74
2023/01/17 01:45:23;;;;;;;12.50;1.13;;;2.90;99.90;;;;;;5051386;28;20129;-73
2023/01/17 01:48:02;;;;;;;5.20;0.70;;;2.90;99.90;;;;;;5076368;28;20064;-73
2023/01/17 01:50:29;;;;;;;9.25;0.90;;;2.90;99.90;;;;;;5053225;28;20044;-71
2023/01/17 01:52:59;;;;;;;8.75;1.02;;;2.90;99.90;;;;;;5036755;28;20050;-72
2023/01/17 01:55:31;;;;;;;7.03;1.00;;;2.90;99.90;;;;;;5034371;28;20079;-73
2023/01/17 01:58:08;;;;;;;6.15;1.30;;;2.10;99.90;;;;;;5042619;28;20059;-73
2023/01/17 02:00:36;;;;;;;7.85;1.00;;;2.90;99.90;;;;;;5050736;28;20048;-72
2023/01/17 02:03:29;;;;;;;12.38;1.38;;;2.90;99.90;;;;;;5041386;28;20106;-72
2023/01/17 02:06:06;;;;;;;7.88;1.45;;;2.90;99.90;;;;;;5058597;28;20048;-73
2023/01/17 02:08:33;;;;;;;10.00;1.30;;;3.00;99.90;;;;;;5056060;28;20029;-73
2023/01/17 02:10:59;;;;;;;11.48;0.88;;;2.90;99.90;;;;;;5044634;28;20537;-73
2023/01/17 02:13:30;;;;;;;8.63;1.27;;;2.90;99.90;;;;;;5078638;28;20127;-73
2023/01/17 02:16:14;;;;;;;7.00;1.02;;;2.80;99.90;;;;;;5058584;28;20079;-74
2023/01/17 02:19:17;;;;;;;9.32;0.95;;;2.80;99.90;;;;;;5066044;28;20032;-72
2023/01/17 02:21:56;;;;;;;8.60;1.10;;;2.80;99.90;;;;;;4995568;28;20054;-74
2023/01/17 02:24:50;;;;;;;13.40;1.77;;;2.80;99.90;;;;;;5035499;28;20060;-74
2023/01/17 02:27:58;;;;;;;10.07;1.00;;;2.80;99.90;;;;;;5044032;28;20438;-73
2023/01/17 02:30:36;;;;;;;12.48;1.80;;;2.80;99.90;;;;;;5049272;28;20047;-73
2023/01/17 02:33:27;;;;;;;12.68;1.40;;;2.80;99.90;;;;;;5039458;28;20458;-73
2023/01/17 02:36:05;;;;;;;4.50;0.68;;;2.80;99.90;;;;;;5048335;28;20419;-73
2023/01/17 02:38:33;;;;;;;6.95;1.08;;;2.90;99.90;;;;;;5036762;28;20050;-73
2023/01/17 02:41:04;;;;;;;7.38;1.25;;;2.90;99.90;;;;;;5053923;28;20049;-73
2023/01/17 02:43:31;;;;;;;12.63;1.63;;;2.90;99.90;;;;;;5034289;28;20039;-73
2023/01/17 02:45:57;;;;;;;9.27;1.20;;;3.00;99.90;;;;;;5070356;28;20047;-74
2023/01/17 02:48:28;;;;;;;10.27;1.48;;;2.90;99.90;;;;;;5056484;28;20037;-74
2023/01/17 02:51:37;;;;;;;9.07;1.27;;;3.00;99.90;;;;;;5031383;28;20078;-74
2023/01/17 02:54:29;;;;;;;8.00;0.68;;;3.00;99.90;;;;;;4980568;28;20033;-74
2023/01/17 02:57:28;;;;;;;7.57;0.88;;;3.00;99.90;;;;;;5067147;28;20040;-75
2023/01/17 03:00:02;;;;;;;6.03;1.05;;;2.90;99.90;;;;;;5069656;28;20044;-74
2023/01/17 03:02:41;;;;;;;7.15;1.00;;;2.80;99.90;;;;;;5053870;28;20585;-74
2023/01/17 03:05:22;;;;;;;8.32;1.67;;;2.80;99.90;;;;;;5052394;28;20055;-74
2023/01/17 03:07:52;;;;;;;;;;;2.70;99.90;;;;;;5052407;28;20048;-73
2023/01/17 03:10:19;;;;;;;7.53;1.20;;;2.70;99.90;;;;;;5053107;28;19962;-74
2023/01/17 03:12:45;;;;;;;9.45;1.17;;;2.70;99.90;;;;;;5051882;28;20051;-74
2023/01/17 03:15:16;;;;;;;10.38;1.15;;;2.70;99.90;;;;;;5046946;28;20768;-74
2023/01/17 03:17:47;;;;;;;6.85;0.88;;;2.70;99.90;;;;;;5047200;28;20080;-74
2023/01/17 03:20:13;;;;;;;9.52;1.15;;;2.70;99.90;;;;;;5073376;28;20050;-74
2023/01/17 03:22:39;;;;;;;3.38;1.05;;;2.70;99.90;;;;;;5036761;28;20041;-74
2023/01/17 03:25:05;;;;;;;3.70;0.70;;;2.70;99.90;;;;;;5042208;28;20089;-74
2023/01/17 03:27:31;;;;;;;8.95;0.80;;;2.70;99.90;;;;;;5056893;28;20040;-75
2023/01/17 03:29:57;;;;;;;6.38;0.95;;;2.70;99.90;;;;;;5073861;28;20574;-72
2023/01/17 03:32:23;;;;;;;6.35;0.77;;;3.10;99.90;;;;;;5036665;28;20044;-75
2023/01/17 03:34:48;;;;;;;8.90;0.70;;;2.70;99.90;;;;;;5058217;28;20100;-75
2023/01/17 03:37:14;;;;;;;8.23;1.00;;;2.70;99.90;;;;;;5052054;28;20044;-75
2023/01/17 03:39:40;;;;;;;7.13;0.98;;;2.70;99.90;;;;;;5057369;28;20044;-75
2023/01/17 03:42:06;;;;;;;8.57;0.82;;;2.70;99.90;;;;;;5050566;28;20075;-75
2023/01/17 03:44:33;;;;;;;10.02;1.10;;;2.70;99.90;;;;;;5064482;28;20508;-75
2023/01/17 03:46:59;;;;;;;11.63;1.00;;;2.70;99.90;;;;;;5069122;28;20056;-75
2023/01/17 03:49:28;;;;;;;11.80;0.98;;;2.70;99.90;;;;;;5050991;28;20153;-75
2023/01/17 03:51:53;;;;;;;6.25;0.85;;;2.70;99.90;;;;;;5056269;28;20052;-75
2023/01/17 03:54:19;;;;;;;8.95;1.23;;;2.70;99.90;;;;;;5061840;28;20043;-75
2023/01/17 03:56:45;;;;;;;8.38;0.90;;;2.90;99.90;;;;;;5033366;28;20040;-75
2023/01/17 03:59:10;;;;;;;10.52;1.08;;;2.70;99.90;;;;;;5057695;28;20146;-75
2023/01/17 04:01:36;;;;;;;4.85;1.15;;;2.70;99.90;;;;;;5036589;28;20036;-74
2023/01/17 04:04:02;;;;;;;8.45;0.82;;;2.70;99.90;;;;;;5070035;28;20040;-75
2023/01/17 04:06:28;;;;;;;12.50;1.33;;;2.70;99.90;;;;;;5056397;28;20056;-75
2023/01/17 04:08:54;;;;;;;10.98;1.25;;;2.60;99.90;;;;;;5054810;28;20647;-73
2023/01/17 04:11:19;;;;;;;7.97;0.73;;;2.60;99.90;;;;;;5067035;28;20062;-74
2023/01/17 04:13:45;;;;;;;12.40;0.93;;;2.60;99.90;;;;;;5035727;28;20044;-74
2023/01/17 04:16:15;;;;;;;8.75;0.90;;;3.10;99.90;;;;;;5036127;28;20163;-73
2023/01/17 04:18:41;;;;;;;9.10;0.98;;;2.60;99.90;;;;;;5050421;28;20040;-74
2023/01/17 04:21:07;;;;;;;10.85;1.15;;;2.60;99.90;;;;;;5052871;28;20067;-74
2023/01/17 04:23:33;;;;;;;8.35;1.00;;;2.60;99.90;;;;;;5074264;28;20036;-73
2023/01/17 04:25:59;;;;;;;6.35;1.02;;;2.50;99.90;;;;;;5048513;28;20170;-74
2023/01/17 04:28:25;;;;;;;6.43;0.80;;;3.10;99.90;;;;;;5045347;28;20156;-74
2023/01/17 04:30:51;;;;;;;9.85;1.70;;;2.90;99.90;;;;;;5055253;28;20059;-74
2023/01/17 04:33:17;;;;;;;9.50;0.90;;;2.80;99.90;;;;;;5056175;28;20040;-73
2023/01/17 04:35:43;;;;;;;6.57;0.70;;;2.60;99.90;;;;;;5057466;28;20653;-73
2023/01/17 04:38:09;;;;;;;10.90;1.20;;;2.60;99.90;;;;;;5033281;28;20040;-73
2023/01/17 04:40:34;;;;;;;6.93;0.80;;;2.70;99.90;;;;;;5050508;28;20798;-74
2023/01/17 04:43:00;;;;;;;6.50;0.55;;;2.60;99.90;;;;;;5075999;28;20092;-73
2023/01/17 04:45:26;;;;;;;4.53;0.90;;;2.50;99.90;;;;;;5034910;28;20036;-73
2023/01/17 04:47:52;;;;;;;5.90;0.80;;;2.50;99.90;;;;;;5049999;28;20073;-74
2023/01/17 04:50:17;;;;;;;6.35;0.70;;;2.40;99.90;;;;;;5055970;28;20043;-74
2023/01/17 04:52:43;;;;;;;2.92;0.50;;;2.40;99.90;;;;;;5051692;28;20037;-73
2023/01/17 04:55:09;;;;;;;5.72;1.10;;;2.40;99.90;;;;;;5036632;28;20067;-73
2023/01/17 04:57:35;;;;;;;5.85;0.68;;;2.40;99.90;;;;;;5054782;28;20044;-73
2023/01/17 05:00:01;;;;;;;5.43;0.45;;;2.40;99.90;;;;;;5059019;28;20048;-73
2023/01/17 05:02:26;;;;;;;4.47;0.82;;;2.30;99.90;;;;;;5078152;28;20044;-73
2023/01/17 05:04:52;;;;;;;6.05;1.10;;;2.20;99.90;;;;;;5051645;28;20033;-73
2023/01/17 05:07:18;;;;;;;3.35;0.68;;;2.30;99.90;;;;;;5044731;28;20036;-74
2023/01/17 05:09:43;;;;;;;7.97;1.00;;;2.50;99.90;;;;;;5065022;28;20051;-73
2023/01/17 05:12:09;;;;;;;6.20;0.60;;;3.00;99.90;;;;;;5052645;28;20052;-73
2023/01/17 05:14:35;;;;;;;11.65;1.15;;;2.20;99.90;;;;;;5070345;28;20127;-74
2023/01/17 05:17:01;;;;;;;9.10;0.82;;;2.20;99.90;;;;;;5069725;28;20033;-73
2023/01/17 05:19:28;;;;;;;6.00;0.68;;;2.10;99.90;;;;;;5052002;28;20055;-73
2023/01/17 05:21:53;;;;;;;7.78;1.20;;;2.90;99.90;;;;;;5055210;28;20050;-73
2023/01/17 05:24:19;;;;;;;5.43;0.88;;;2.10;99.90;;;;;;5048249;28;20097;-74
2023/01/17 05:26:53;;;;;;;12.52;1.35;;;2.20;99.90;;;;;;5051178;28;20041;-73
2023/01/17 05:29:19;;;;;;;7.10;0.85;;;2.30;99.90;;;;;;5043524;28;20082;-73
2023/01/17 05:31:45;;;;;;;14.05;1.13;;;2.10;99.90;;;;;;5053121;28;20048;-73
2023/01/17 05:34:11;;;;;;;6.65;0.75;;;2.10;99.90;;;;;;5051621;28;20044;-74
2023/01/17 05:36:36;;;;;;;8.75;1.00;;;2.10;99.90;;;;;;5059499;28;20540;-74
2023/01/17 05:39:02;;;;;;;8.38;1.17;;;2.00;99.90;;;;;;5054521;28;20395;-73
2023/01/17 05:41:28;;;;;;;7.82;0.77;;;2.00;99.90;;;;;;5036364;28;20079;-73
2023/01/17 05:43:54;;;;;;;8.13;1.35;;;2.00;99.90;;;;;;5054389;28;20052;-74
2023/01/17 05:46:19;;;;;;;9.30;1.23;;;2.00;99.90;;;;;;5073779;28;20045;-73
2023/01/17 05:48:45;;;;;;;11.18;1.10;;;2.00;99.90;;;;;;5052688;28;20056;-73
2023/01/17 05:51:11;;;;;;;21.05;1.48;;;2.50;99.90;;;;;;5050419;28;20049;-73
2023/01/17 05:53:36;;;;;;;6.03;1.20;;;2.00;99.90;;;;;;5051373;28;20483;-73
2023/01/17 05:56:02;;;;;;;9.95;0.90;;;2.10;99.90;;;;;;5055238;28;20048;-73
2023/01/17 05:58:28;;;;;;;8.20;1.13;;;1.90;99.90;;;;;;5049285;28;20036;-73
2023/01/17 06:00:54;;;;;;;11.25;1.00;;;1.90;99.90;;;;;;5038484;28;20126;-73
2023/01/17 06:03:20;;;;;;;10.02;1.20;;;1.90;99.90;;;;;;5038493;28;20040;-73
2023/01/17 06:05:46;;;;;;;7.25;0.70;;;1.80;99.90;;;;;;5045253;28;20051;-73
2023/01/17 06:08:12;;;;;;;8.75;1.17;;;1.80;99.90;;;;;;5069453;28;20052;-73
2023/01/17 06:10:39;;;;;;;7.25;1.45;;;1.80;99.90;;;;;;5075223;28;20092;-73
2023/01/17 06:13:11;;;;;;;5.38;0.68;;;1.80;99.90;;;;;;5074171;28;20087;-73
2023/01/17 06:15:38;;;;;;;9.10;1.13;;;1.80;99.90;;;;;;5046227;28;20040;-73
2023/01/17 06:18:06;;;;;;;11.15;0.90;;;1.80;99.90;;;;;;5031911;28;20086;-73
2023/01/17 06:20:32;;;;;;;8.13;1.05;;;1.70;99.90;;;;;;5031488;28;20110;-73
2023/01/17 06:23:06;;;;;;;11.35;1.25;;;1.70;99.90;;;;;;5034108;28;20040;-72
2023/01/17 06:25:42;;;;;;;5.15;0.68;;;1.70;99.90;;;;;;5065951;28;20044;-74
2023/01/17 06:28:09;;;;;;;6.32;0.68;;;1.70;99.90;;;;;;5048158;28;20118;-73
2023/01/17 06:30:36;;;;;;;5.47;0.80;;;1.60;99.90;;;;;;5067370;28;20052;-73
2023/01/17 06:33:02;;;;;;;2.55;0.68;;;1.60;99.90;;;;;;5045213;28;20056;-72
2023/01/17 06:35:28;;;;;;;7.55;0.95;;;1.60;99.90;;;;;;5050664;28;20086;-73
2023/01/17 06:37:56;;;;;;;5.43;1.00;;;1.60;99.90;;;;;;5035157;28;20051;-72
2023/01/17 06:40:23;;;;;;;10.00;1.05;;;2.40;99.90;;;;;;5070521;28;20040;-73
2023/01/17 06:42:49;;;;;;;4.97;0.70;;;1.50;99.90;;;;;;5060007;28;20040;-73
2023/01/17 06:45:15;;;;;;;5.25;1.20;;;1.50;99.90;;;;;;5052955;28;20048;-73
2023/01/17 06:47:42;;;;;;;7.63;0.93;;;1.50;99.90;;;;;;5043880;28;20054;-73
2023/01/17 06:50:09;;;;;;;3.25;0.70;;;1.50;99.90;;;;;;5077240;28;20040;-73
2023/01/17 06:52:35;;;;;;;4.18;0.80;;;1.40;99.90;;;;;;5059393;28;20044;-72
2023/01/17 06:55:01;;;;;;;6.97;0.80;;;1.80;99.90;;;;;;5032193;28;20063;-73
2023/01/17 06:57:27;;;;;;;4.93;0.68;;;1.40;99.90;;;;;;5071907;28;20036;-73
2023/01/17 06:59:52;;;;;;;3.78;0.82;;;1.40;99.90;;;;;;5058101;28;20052;-73
2023/01/17 07:02:18;;;;;;;4.82;0.82;;;1.30;99.90;;;;;;5054556;28;20040;-73
2023/01/17 07:04:44;;;;;;;5.78;0.77;;;1.40;99.90;;;;;;5074435;28;20047;-73
2023/01/17 07:07:09;;;;;;;6.50;0.90;;;1.90;99.90;;;;;;5056934;28;20043;-73
2023/01/17 07:09:35;;;;;;;6.03;0.82;;;1.30;99.90;;;;;;5044733;28;20051;-72
2023/01/17 07:12:01;;;;;;;8.40;1.40;;;1.30;99.90;;;;;;5035464;28;20049;-73
2023/01/17 07:14:27;;;;;;;3.05;0.80;;;1.30;99.90;;;;;;5043974;28;20071;-73
2023/01/17 07:16:54;;;;;;;4.80;0.82;;;1.20;99.90;;;;;;5074384;28;20134;-73
2023/01/17 07:19:20;;;;;;;2.92;0.75;;;1.20;99.90;;;;;;5057472;28;20047;-73
2023/01/17 07:21:51;;;;;;;6.10;0.75;;;1.20;99.90;;;;;;5037769;28;20040;-73
2023/01/17 07:24:17;;;;;;;6.22;1.73;;;1.20;99.90;;;;;;5055404;28;20097;-73
2023/01/17 07:26:43;;;;;;;5.22;1.00;;;1.20;99.90;;;;;;5061288;28;20040;-73
2023/01/17 07:29:08;;;;;;;8.35;0.95;;;1.20;99.90;;;;;;5063679;28;20050;-73
2023/01/17 07:31:36;;;;;;;4.82;0.80;;;1.20;99.90;;;;;;5056342;28;20032;-73
2023/01/17 07:34:03;;;;;;;3.88;0.75;;;1.10;99.90;;;;;;5060164;28;20125;-73
2023/01/17 07:36:28;;;;;;;4.65;0.70;;;1.10;99.90;;;;;;5069464;28;20028;-73
2023/01/17 07:38:54;;;;;;;7.18;0.98;;;1.20;99.90;;;;;;5058053;28;20040;-73
2023/01/17 07:41:20;;;;;;;4.88;0.90;;;1.10;99.90;;;;;;5063486;28;20489;-73
2023/01/17 07:43:46;;;;;;;7.50;1.10;;;1.10;99.90;;;;;;5074218;28;20036;-73
2023/01/17 07:46:14;;;;;;;6.53;1.10;;;1.30;99.90;;;;;;5059481;28;20110;-73
2023/01/17 07:48:40;;;;;;;7.63;0.90;;;1.90;99.90;;;;;;5043522;28;20040;-73
2023/01/17 07:51:07;;;;;;;8.38;0.77;;;1.20;99.90;;;;;;5054933;28;20049;-73
2023/01/17 07:53:32;;;;;;;8.55;1.00;;;1.00;99.90;;;;;;5051919;28;20085;-73
2023/01/17 07:56:04;;;;;;;6.85;0.93;;;1.10;99.90;;;;;;5055274;28;20044;-73
2023/01/17 07:58:31;;;;;;;9.50;1.40;;;1.00;99.90;;;;;;5057685;28;20044;-73
2023/01/17 08:01:22;;;;;;;5.07;0.80;;;1.10;99.90;;;;;;5068626;28;20051;-73
2023/01/17 08:03:52;;;;;;;11.00;2.08;;;1.10;99.90;;;;;;5046417;28;20052;-73
2023/01/17 08:06:23;;;;;;;7.15;0.90;;;1.00;99.90;;;;;;5048151;28;20056;-73
2023/01/17 08:08:49;;;;;;;5.68;0.70;;;1.00;99.90;;;;;;5056424;28;20122;-73
2023/01/17 08:11:15;;;;;;;9.32;1.10;;;1.00;99.90;;;;;;5055217;28;20092;-73
2023/01/17 08:13:41;;;;;;;7.60;0.75;;;1.50;99.90;;;;;;5058445;28;20068;-73
2023/01/17 08:16:09;;;;;;;5.22;0.50;;;1.10;99.90;;;;;;5051995;28;20463;-73
2023/01/17 08:18:35;;;;;;;12.45;1.08;;;1.10;99.90;;;;;;5039003;28;20036;-73
2023/01/17 08:21:01;;;;;;;6.15;0.68;;;1.10;99.90;;;;;;5035845;28;20052;-72
2023/01/17 08:23:27;;;;;;;9.40;1.10;;;1.10;99.90;;;;;;5058104;28;20520;-73
2023/01/17 08:25:52;;;;;;;9.18;1.63;;;2.10;99.90;;;;;;5045433;28;20047;-73
2023/01/17 08:28:18;;;;;;;12.30;1.20;;;1.20;99.90;;;;;;5063597;28;20056;-73
2023/01/17 08:30:44;;;;;;;3.20;0.80;;;1.20;99.90;;;;;;5050527;28;20044;-73
2023/01/17 08:33:10;;;;;;;11.65;0.90;;;1.40;99.90;;;;;;5055875;28;20493;-73
2023/01/17 08:35:36;;;;;;;5.22;0.80;;;1.40;99.90;;;;;;5075907;28;20032;-73
2023/01/17 08:38:03;;;;;;;9.75;1.23;;;1.20;99.90;;;;;;5060781;28;20511;-73
2023/01/17 08:40:32;;;;;;;9.40;0.90;;;1.20;99.90;;;;;;5060694;28;20131;-73
2023/01/17 08:42:59;;;;;;;4.28;0.82;;;1.20;99.90;;;;;;5054652;28;20038;-73
2023/01/17 08:45:26;;;;;;;4.43;0.82;;;1.30;99.90;;;;;;5072116;28;20075;-73
2023/01/17 08:47:52;;;;;;;10.95;1.15;;;0.30;99.90;;;;;;5071337;28;20040;-73
2023/01/17 08:50:23;;;;;;;7.32;1.35;;;1.30;99.90;;;;;;5066785;28;20072;-73
2023/01/17 08:52:49;;;;;;;5.00;1.27;;;1.30;99.90;;;;;;5058258;28;20036;-73
2023/01/17 08:55:16;;;;;;;5.25;1.23;;;1.50;99.90;;;;;;5058225;28;20515;-73
2023/01/17 08:57:42;;;;;;;5.53;0.90;;;1.30;99.90;;;;;;5037492;28;20058;-73
2023/01/17 09:00:09;;;;;;;4.68;0.98;;;1.30;99.90;;;;;;5033801;28;20036;-73
2023/01/17 09:02:35;;;;;;;5.13;0.90;;;1.40;99.90;;;;;;5034413;28;20918;-73
2023/01/17 09:05:01;;;;;;;5.88;0.70;;;1.40;99.90;;;;;;5054465;28;20051;-73
2023/01/17 09:07:27;;;;;;;12.15;1.23;;;1.40;99.90;;;;;;5056210;28;20387;-73
2023/01/17 09:09:53;;;;;;;3.92;0.80;;;1.40;99.90;;;;;;5056294;28;20886;-73
2023/01/17 09:12:21;;;;;;;5.55;0.75;;;2.30;99.90;;;;;;5063544;28;20045;-73
2023/01/17 09:14:47;;;;;;;4.45;1.13;;;1.40;99.90;;;;;;5072548;28;20451;-73
2023/01/17 09:17:13;;;;;;;5.63;0.90;;;1.50;99.90;;;;;;5076852;28;20036;-73
2023/01/17 09:19:42;;;;;;;6.25;1.02;;;1.50;99.90;;;;;;5053702;28;20394;-73
2023/01/17 09:22:09;;;;;;;3.03;1.10;;;1.50;99.90;;;;;;5055153;28;20048;-73
2023/01/17 09:24:34;;;;;;;3.60;0.90;;;1.50;99.90;;;;;;5072973;28;20071;-73
2023/01/17 09:27:00;;;;;;;7.38;1.40;;;1.70;99.90;;;;;;5059928;28;20097;-73
2023/01/17 09:29:26;;;;;;;7.38;1.10;;;2.00;99.90;;;;;;5054154;28;20493;-73
2023/01/17 09:31:52;;;;;;;8.90;0.90;;;1.70;99.90;;;;;;5051459;28;20089;-73
2023/01/17 09:34:18;;;;;;;5.68;1.00;;;1.80;99.90;;;;;;5031197;28;20036;-73
2023/01/17 09:36:44;;;;;;;7.88;0.82;;;1.90;99.90;;;;;;5071794;28;20045;-73
2023/01/17 09:39:14;;;;;;;4.93;1.10;;;2.00;99.90;;;;;;5063630;28;20048;-73
2023/01/17 09:41:55;;;;;;;5.80;0.90;;;2.10;99.90;;;;;;5055083;28;20048;-73
2023/01/17 09:44:39;;;;;;;7.25;0.60;;;2.20;99.90;;;;;;5071451;28;20097;-73
2023/01/17 09:47:36;;;;;;;7.28;1.60;;;2.40;99.90;;;;;;5037088;28;20113;-73
2023/01/17 09:50:32;;;;;;;3.90;1.13;;;2.30;99.90;;;;;;5057183;28;21934;-73
2023/01/17 09:53:04;;;;;;;2.92;0.40;;;2.30;99.90;;;;;;5061708;28;20056;-72
2023/01/17 09:55:38;;;;;;;4.57;0.60;;;2.40;99.90;;;;;;5043475;28;20117;-73
2023/01/17 09:58:20;;;;;;;3.53;0.60;;;2.30;99.90;;;;;;5051233;28;20055;-73
2023/01/17 10:01:10;;;;;;;2.90;0.50;;;2.40;99.90;;;;;;5038106;28;20136;-73
2023/01/17 10:03:56;;;;;;;2.22;0.40;;;2.40;99.90;;;;;;5051052;28;20126;-73
2023/01/17 10:06:46;;;;;;;1.95;0.50;;;2.40;99.90;;;;;;5057056;28;20048;-73
2023/01/17 10:09:30;;;;;;;4.60;1.38;;;2.50;99.90;;;;;;5050808;28;20059;-73
2023/01/17 10:12:15;;;;;;;2.65;0.82;;;2.50;99.90;;;;;;5056165;28;20052;-74
2023/01/17 10:15:28;;;;;;;3.55;0.57;;;2.50;99.90;;;;;;5036891;28;20098;-73
2023/01/17 10:18:23;;;;;;;2.65;0.30;;;2.60;99.90;;;;;;4950043;28;20451;-73
2023/01/17 10:20:54;;;;;;;2.47;0.40;;;2.60;99.90;;;;;;4959648;28;20050;-73
2023/01/17 10:23:38;;;;;;;;;;;2.60;99.90;;;;;;5038964;28;20060;-74
2023/01/17 10:26:24;;;;;;;4.60;0.47;;;2.60;99.90;;;;;;5039596;28;20019;-73
2023/01/17 10:28:53;;;;;;;2.35;0.50;;;2.70;99.90;;;;;;5036288;28;20045;-73
2023/01/17 10:31:21;;;;;;;5.68;0.55;;;2.70;99.90;;;;;;5055858;28;20427;-74
2023/01/17 10:34:09;;;;;;;6.60;0.68;;;2.80;99.90;;;;;;5062901;28;20044;-73
2023/01/17 10:36:40;;;;;;;3.00;0.80;;;2.80;99.90;;;;;;5037244;28;20062;-73
2023/01/17 10:39:24;;;;;;;6.90;0.60;;;2.80;99.90;;;;;;5036697;28;20048;-74
2023/01/17 10:42:23;;;;;;;3.50;0.60;;;2.80;99.90;;;;;;5050862;28;20672;-73
2023/01/17 10:45:24;;;;;;;3.22;0.60;;;2.80;99.90;;;;;;5050976;28;20083;-73
2023/01/17 10:48:04;;;;;;;3.33;0.80;;;2.90;99.90;;;;;;5038784;28;20045;-73
2023/01/17 10:51:03;;;;;;;1.95;0.40;;;2.90;99.90;;;;;;5064868;28;20427;-73
2023/01/17 10:53:54;;;;;;;9.10;0.80;;;2.90;99.90;;;;;;5035388;28;20044;-73
2023/01/17 10:56:24;;;;;;;6.82;1.33;;;2.90;99.90;;;;;;5053983;28;20040;-73
2023/01/17 10:59:04;;;;;;;2.97;0.70;;;2.90;99.90;;;;;;5037728;28;20044;-73
2023/01/17 11:01:29;;;;;;;2.55;0.52;;;2.90;99.90;;;;;;5047604;28;20635;-73
2023/01/17 11:03:57;;;;;;;8.15;1.60;;;2.90;99.90;;;;;;5050185;28;20036;-73
2023/01/17 11:06:24;;;;;;;5.93;0.77;;;2.90;99.90;;;;;;5035122;28;20040;-73
2023/01/17 11:08:55;;;;;;;8.98;1.58;;;3.00;99.90;;;;;;5056666;28;20127;-74
2023/01/17 11:11:29;;;;;;;2.60;0.60;;;3.00;99.90;;;;;;5069171;28;20091;-73
2023/01/17 11:14:03;;;;;;;10.43;1.13;;;3.00;99.90;;;;;;5048638;28;20496;-73
2023/01/17 11:16:30;;;;;;;3.92;0.65;;;3.10;99.90;;;;;;5072706;28;20171;-73
2023/01/17 11:19:23;;;;;;;6.78;1.20;;;3.00;99.90;;;;;;5053490;28;20039;-73
2023/01/17 11:22:03;;;;;;;5.25;0.93;;;3.10;99.90;;;;;;5051680;28;20473;-73
2023/01/17 11:24:38;;;;;;;4.15;1.67;;;3.10;99.90;;;;;;5067290;28;20097;-73
2023/01/17 11:27:06;;;;;;;2.30;0.70;;;3.10;99.90;;;;;;5070689;28;20041;-73
2023/01/17 11:29:35;;;;;;;7.57;1.98;;;3.20;99.90;;;;;;5052303;28;20047;-73
2023/01/17 11:32:20;;;;;;;6.85;1.30;;;3.20;99.90;;;;;;5058254;28;20063;-73
2023/01/17 11:35:05;;;;;;;10.82;1.02;;;3.20;99.90;;;;;;5058641;28;20044;-74
2023/01/17 11:37:33;;;;;;;17.08;2.13;;;3.10;99.90;;;;;;5056956;28;20159;-73
2023/01/17 11:40:21;;;;;;;6.35;1.65;;;3.20;99.90;;;;;;5057051;28;20036;-74
2023/01/17 11:42:59;;;;;;;7.95;0.95;;;3.10;99.90;;;;;;5053033;28;20123;-73
2023/01/17 11:45:28;;;;;;;3.97;0.70;;;3.20;99.90;;;;;;5046218;28;20043;-73
2023/01/17 11:48:15;;;;;;;3.83;0.65;;;3.20;99.90;;;;;;5061313;28;20036;-73
2023/01/17 11:50:56;;;;;;;9.18;1.85;;;3.20;99.90;;;;;;5050599;28;20460;-74
2023/01/17 11:53:23;;;;;;;2.35;0.80;;;3.20;99.90;;;;;;5054049;28;20532;-74
2023/01/17 11:55:52;;;;;;;9.18;1.00;;;3.30;99.90;;;;;;5033824;28;20055;-73
2023/01/17 11:58:22;;;;;;;7.13;0.93;;;3.30;99.90;;;;;;5052563;28;20041;-74
2023/01/17 12:00:54;;;;;;;5.22;0.93;;;3.40;99.90;;;;;;5065583;28;20052;-73
2023/01/17 12:03:51;;;;;;;5.38;0.90;;;3.50;99.90;;;;;;5048091;28;20052;-74
2023/01/17 12:06:42;;;;;;;6.38;0.95;;;3.50;99.90;;;;;;5026658;28;20313;-74
2023/01/17 12:09:36;;;;;;;8.30;0.90;;;3.50;99.90;;;;;;5048018;28;20466;-74
2023/01/17 12:15:31;;;;;;;5.80;0.93;;;3.60;99.90;;;;;;5041295;28;20044;-74
2023/01/17 12:18:09;;;;;;;8.45;0.90;;;3.70;99.90;;;;;;5074814;28;20128;-74
2023/01/17 12:21:13;;;;;;;6.45;1.52;;;3.70;99.90;;;;;;5060023;28;20073;-74
2023/01/17 12:24:36;;;;;;;7.55;0.85;;;3.80;99.90;;;;;;5062663;28;20040;-74
2023/01/17 12:27:13;;;;;;;3.17;0.85;;;3.80;99.90;;;;;;5036362;28;20052;-74
2023/01/17 12:29:45;;;;;;;11.00;1.10;;;3.90;99.90;;;;;;5072710;28;20119;-74
2023/01/17 12:32:28;;;;;;;6.35;0.95;;;3.90;99.90;;;;;;5037997;28;20080;-73
2023/01/17 12:35:06;;;;;;;4.65;0.82;;;3.90;99.90;;;;;;5044737;28;20048;-73
2023/01/17 12:37:38;;;;;;;5.95;0.70;;;4.00;99.90;;;;;;5056635;28;20296;-74
2023/01/17 12:40:12;;;;;;;3.47;0.90;;;4.00;99.90;;;;;;5039649;28;20056;-73
2023/01/17 12:42:42;;;;;;;9.10;1.13;;;4.00;99.90;;;;;;5052651;28;20481;-74
2023/01/17 12:45:20;;;;;;;7.13;0.95;;;4.00;99.90;;;;;;5077819;28;20390;-73
2023/01/17 12:47:53;;;;;;;4.88;0.80;;;4.70;99.90;;;;;;5039411;28;20139;-74
2023/01/17 12:50:53;;;;;;;6.60;0.80;;;4.40;99.90;;;;;;5053771;28;20124;-75
2023/01/17 12:53:30;;;;;;;6.60;0.80;;;4.00;99.90;;;;;;5053876;28;20831;-73
2023/01/17 12:56:07;;;;;;;2.53;0.90;;;4.00;99.90;;;;;;5053527;28;20186;-74
2023/01/17 12:58:39;;;;;;;7.80;1.45;;;4.00;99.90;;;;;;5041475;28;20043;-74
2023/01/17 13:01:41;;;;;;;9.48;0.98;;;4.00;99.90;;;;;;5056932;28;20075;-74
2023/01/17 13:04:28;;;;;;;3.53;0.98;;;4.30;99.90;;;;;;5055106;28;20102;-74
2023/01/17 13:07:05;;;;;;;4.38;0.70;;;4.70;99.90;;;;;;5055076;28;20040;-74
2023/01/17 13:09:41;;;;;;;7.80;0.98;;;4.10;99.90;;;;;;5048686;28;20504;-74
2023/01/17 13:12:13;;;;;;;7.20;1.17;;;4.20;99.90;;;;;;5070474;28;20462;-74
2023/01/17 13:14:40;;;;;;;7.22;1.08;;;4.10;99.90;;;;;;5073608;28;20043;-74
2023/01/17 13:17:11;;;;;;;4.85;0.73;;;4.10;99.90;;;;;;5056920;28;20040;-73
2023/01/17 13:19:40;;;;;;;;;;;4.10;99.90;;;;;;5068858;28;20080;-74
2023/01/17 13:22:09;;;;;;;4.25;1.00;;;4.10;99.90;;;;;;5059901;28;19924;-73
2023/01/17 13:24:49;;;;;;;7.45;0.70;;;4.00;99.90;;;;;;5052571;28;20044;-74
2023/01/17 13:27:18;;;;;;;4.50;0.73;;;3.90;99.90;;;;;;5056771;28;20493;-73
2023/01/17 13:29:52;;;;;;;3.72;0.90;;;3.90;99.90;;;;;;5058371;28;20127;-73
2023/01/17 13:32:24;;;;;;;3.25;0.70;;;3.80;99.90;;;;;;5046116;28;20408;-74
2023/01/17 13:34:52;;;;;;;;;;;3.80;99.90;;;;;;5038799;28;20123;-74
2023/01/17 13:37:38;;;;;;;5.90;0.65;;;3.70;99.90;;;;;;5055770;28;20684;-73
2023/01/17 13:40:32;;;;;;;3.55;0.77;;;4.10;99.90;;;;;;5078160;28;20553;-74
2023/01/17 13:43:13;;;;;;;5.45;1.05;;;3.70;99.90;;;;;;5052462;28;20082;-74
2023/01/17 13:45:39;;;;;;;4.93;0.75;;;3.80;99.90;;;;;;5054689;28;20039;-73
2023/01/17 13:48:20;;;;;;;4.78;0.80;;;3.80;99.90;;;;;;5032195;28;20489;-74
2023/01/17 13:51:01;;;;;;;5.45;1.02;;;3.90;99.90;;;;;;5038672;28;20040;-74
2023/01/17 13:53:33;;;;;;;8.07;0.93;;;3.90;99.90;;;;;;5037033;28;20044;-75
2023/01/17 13:56:07;;;;;;;5.22;0.98;;;3.90;99.90;;;;;;5067275;28;20624;-76
2023/01/17 13:59:00;;;;;;;5.13;0.82;;;3.90;99.90;;;;;;5035555;28;20405;-75
2023/01/17 14:01:37;;;;;;;2.40;0.60;;;3.90;99.90;;;;;;5053460;28;20040;-74
2023/01/17 14:04:10;;;;;;;6.35;0.95;;;3.90;99.90;;;;;;5051784;28;20051;-76
2023/01/17 14:06:53;;;;;;;4.97;0.90;;;4.00;99.90;;;;;;5053238;28;20040;-77
2023/01/17 14:09:41;;;;;;;4.63;0.88;;;4.10;99.90;;;;;;5052905;28;20049;-76
2023/01/17 14:12:10;;;;;;;3.22;0.70;;;4.00;99.90;;;;;;5039407;28;20052;-75
2023/01/17 14:14:39;;;;;;;4.35;0.85;;;3.90;99.90;;;;;;5051402;28;20050;-76
2023/01/17 14:17:27;;;;;;;4.53;0.90;;;4.00;99.90;;;;;;5053025;28;20056;-77
2023/01/17 14:20:04;;;;;;;4.32;0.95;;;3.90;99.90;;;;;;5052602;28;20135;-75
2023/01/17 14:22:35;;;;;;;3.95;0.90;;;3.90;99.90;;;;;;5035264;28;20079;-76
2023/01/17 14:25:18;;;;;;;5.93;0.80;;;4.30;99.90;;;;;;5051913;28;20078;-77
2023/01/17 14:28:14;;;;;;;6.00;0.88;;;3.90;99.90;;;;;;5049848;28;20055;-76
2023/01/17 14:30:40;;;;;;;4.45;0.70;;;3.90;99.90;;;;;;5070330;28;20055;-76
2023/01/17 14:33:12;;;;;;;1.58;0.60;;;3.90;99.90;;;;;;5049858;28;20044;-74
2023/01/17 14:35:55;;;;;;;4.05;0.90;;;3.90;99.90;;;;;;5031833;28;20051;-74
2023/01/17 14:38:24;;;;;;;5.07;0.80;;;3.90;99.90;;;;;;5054549;28;20051;-74
2023/01/17 14:40:59;;;;;;;5.00;0.70;;;4.30;99.90;;;;;;5067741;28;20036;-74
2023/01/17 14:43:31;;;;;;;4.78;0.57;;;3.90;99.90;;;;;;5055225;28;20036;-74
2023/01/17 14:46:06;;;;;;;5.75;0.70;;;3.90;99.90;;;;;;5032645;28;20058;-74
2023/01/17 14:48:32;;;;;;;5.10;0.90;;;3.90;99.90;;;;;;5042647;28;20408;-74
2023/01/17 14:50:59;;;;;;;5.50;0.73;;;3.90;99.90;;;;;;5053130;28;20040;-74